sensor_id;sensor_type;location;lat;lon;timestamp;pressure;altitude;pressure_sealevel;temperature;humidity
51876;BME280;34054;52.100;5.116;2024-01-16T00:00:28;100699.88;;;0.93;100.00
51876;BME280;34054;52.100;5.116;2024-01-16T00:01:00;100707.72;;;1.01;100.00
51876;BME280;34054;52.100;5.116;2024-01-16T00:01:33;100707.13;;;1.06;100.00
51876;BME280;34054;52.100;5.116;2024-01-16T00:02:05;100714.31;;;1.05;100.00
51876;BME280;34054;52.100;5.116;2024-01-16T00:02:39;100708.34;;;1.03;100.00
51876;BME280;34054;52.100;5.116;2024-01-16T00:03:11;100710.00;;;1.04;100.00
51876;BME280;34054;52.100;5.116;2024-01-16T00:03:44;100701.38;;;1.09;100.00
51876;BME280;34054;52.100;5.116;2024-01-16T00:04:15;100704.13;;;1.22;100.00
51876;BME280;34054;52.100;5.116;2024-01-16T00:04:47;100700.28;;;1.32;100.00
51876;BME280;34054;52.100;5.116;2024-01-16T00:05:19;100706.69;;;1.44;100.00
51876;BME280;34054;52.100;5.116;2024-01-16T00:05:51;100704.88;;;1.51;100.00
51876;BME280;34054;52.100;5.116;2024-01-16T00:06:22;100701.19;;;1.59;100.00
51876;BME280;34054;52.100;5.116;2024-01-16T00:06:54;100700.34;;;1.59;100.00
51876;BME280;34054;52.100;5.116;2024-01-16T00:07:27;100693.09;;;1.46;100.00
51876;BME280;34054;52.100;5.116;2024-01-16T00:07:58;100694.28;;;1.30;100.00
51876;BME280;34054;52.100;5.116;2024-01-16T00:08:31;100698.78;;;1.29;100.00
51876;BME280;34054;52.100;5.116;2024-01-16T00:09:02;100697.56;;;1.25;100.00
51876;BME280;34054;52.100;5.116;2024-01-16T00:09:36;100697.91;;;1.15;100.00
51876;BME280;34054;52.100;5.116;2024-01-16T00:10:08;100705.81;;;0.95;100.00
51876;BME280;34054;52.100;5.116;2024-01-16T00:10:43;100705.44;;;0.98;100.00
51876;BME280;34054;52.100;5.116;2024-01-16T00:11:15;100699.28;;;0.98;100.00
51876;BME280;34054;52.100;5.116;2024-01-16T00:11:47;100704.31;;;0.86;100.00
51876;BME280;34054;52.100;5.116;2024-01-16T00:12:20;100701.22;;;0.82;100.00
51876;BME280;34054;52.100;5.116;2024-01-16T00:12:51;100704.03;;;0.74;100.00
51876;BME280;34054;52.100;5.116;2024-01-16T00:13:24;100713.84;;;0.67;100.00
51876;BME280;34054;52.100;5.116;2024-01-16T00:13:55;100703.66;;;0.77;100.00
51876;BME280;34054;52.100;5.116;2024-01-16T00:14:27;100706.75;;;0.81;100.00
51876;BME280;34054;52.100;5.116;2024-01-16T00:14:59;100707.78;;;0.80;100.00
51876;BME280;34054;52.100;5.116;2024-01-16T00:15:30;100703.56;;;0.64;100.00
51876;BME280;34054;52.100;5.116;2024-01-16T00:16:03;100705.97;;;0.58;100.00
51876;BME280;34054;52.100;5.116;2024-01-16T00:16:41;100706.19;;;0.57;100.00
51876;BME280;34054;52.100;5.116;2024-01-16T00:17:14;100710.50;;;0.58;100.00
51876;BME280;34054;52.100;5.116;2024-01-16T00:17:45;100708.66;;;0.58;100.00
51876;BME280;34054;52.100;5.116;2024-01-16T00:18:18;100703.06;;;0.53;100.00
51876;BME280;34054;52.100;5.116;2024-01-16T00:18:50;100701.84;;;0.56;100.00
51876;BME280;34054;52.100;5.116;2024-01-16T00:19:21;100699.84;;;0.65;100.00
51876;BME280;34054;52.100;5.116;2024-01-16T00:19:54;100698.66;;;0.67;100.00
51876;BME280;34054;52.100;5.116;2024-01-16T00:20:25;100703.09;;;0.60;100.00
51876;BME280;34054;52.100;5.116;2024-01-16T00:20:57;100703.59;;;0.70;100.00
51876;BME280;34054;52.100;5.116;2024-01-16T00:21:28;100692.16;;;0.76;100.00
51876;BME280;34054;52.100;5.116;2024-01-16T00:22:01;100700.84;;;0.85;100.00
51876;BME280;34054;52.100;5.116;2024-01-16T00:22:34;100704.31;;;0.86;100.00
51876;BME280;34054;52.100;5.116;2024-01-16T00:23:06;100702.13;;;0.96;100.00
51876;BME280;34054;52.100;5.116;2024-01-16T00:23:38;100700.94;;;1.05;100.00
51876;BME280;34054;52.100;5.116;2024-01-16T00:24:09;100707.72;;;1.01;100.00
51876;BME280;34054;52.100;5.116;2024-01-16T00:24:42;100708.34;;;1.03;100.00
51876;BME280;34054;52.100;5.116;2024-01-16T00:25:14;100701.97;;;1.04;100.00
51876;BME280;34054;52.100;5.116;2024-01-16T00:25:47;100703.06;;;1.17;100.00
51876;BME280;34054;52.100;5.116;2024-01-16T00:26:22;100699.38;;;1.24;100.00
51876;BME280;34054;52.100;5.116;2024-01-16T00:26:55;100698.53;;;1.17;100.00
51876;BME280;34054;52.100;5.116;2024-01-16T00:27:26;100692.22;;;1.25;100.00
51876;BME280;34054;52.100;5.116;2024-01-16T00:27:58;100700.66;;;1.29;100.00
51876;BME280;34054;52.100;5.116;2024-01-16T00:28:31;100702.97;;;1.38;100.00
51876;BME280;34054;52.100;5.116;2024-01-16T00:29:03;100697.00;;;1.36;100.00
51876;BME280;34054;52.100;5.116;2024-01-16T00:29:34;100696.34;;;1.28;100.00
51876;BME280;34054;52.100;5.116;2024-01-16T00:30:07;100701.81;;;1.13;100.00
51876;BME280;34054;52.100;5.116;2024-01-16T00:30:40;100700.16;;;1.12;100.00
51876;BME280;34054;52.100;5.116;2024-01-16T00:31:11;100703.88;;;1.17;100.00
51876;BME280;34054;52.100;5.116;2024-01-16T00:31:43;100702.28;;;1.23;100.00
51876;BME280;34054;52.100;5.116;2024-01-16T00:32:15;100693.88;;;1.26;100.00
51876;BME280;34054;52.100;5.116;2024-01-16T00:32:47;100697.81;;;1.37;100.00
51876;BME280;34054;52.100;5.116;2024-01-16T00:33:19;100696.59;;;1.39;100.00
51876;BME280;34054;52.100;5.116;2024-01-16T00:33:50;100693.31;;;1.44;100.00
51876;BME280;34054;52.100;5.116;2024-01-16T00:34:22;100696.78;;;1.38;100.00
51876;BME280;34054;52.100;5.116;2024-01-16T00:34:54;100703.06;;;1.17;100.00
51876;BME280;34054;52.100;5.116;2024-01-16T00:35:26;100697.50;;;1.18;100.00
51876;BME280;34054;52.100;5.116;2024-01-16T00:35:57;100695.38;;;1.00;100.00
51876;BME280;34054;52.100;5.116;2024-01-16T00:36:29;100697.25;;;1.06;100.00
51876;BME280;34054;52.100;5.116;2024-01-16T00:37:01;100699.75;;;1.15;100.00
51876;BME280;34054;52.100;5.116;2024-01-16T00:37:33;100700.66;;;1.29;100.00
51876;BME280;34054;52.100;5.116;2024-01-16T00:38:04;100703.97;;;1.31;100.00
51876;BME280;34054;52.100;5.116;2024-01-16T00:38:36;100705.81;;;1.30;100.00
51876;BME280;34054;52.100;5.116;2024-01-16T00:39:09;100694.47;;;1.21;100.00
51876;BME280;34054;52.100;5.116;2024-01-16T00:39:40;100702.66;;;1.20;100.00
51876;BME280;34054;52.100;5.116;2024-01-16T00:40:12;100700.44;;;1.30;100.00
51876;BME280;34054;52.100;5.116;2024-01-16T00:40:45;100699.69;;;1.43;100.00
51876;BME280;34054;52.100;5.116;2024-01-16T00:41:17;100697.84;;;1.44;100.00
51876;BME280;34054;52.100;5.116;2024-01-16T00:41:49;100698.91;;;1.49;100.00
51876;BME280;34054;52.100;5.116;2024-01-16T00:42:21;100697.84;;;1.50;100.00
51876;BME280;34054;52.100;5.116;2024-01-16T00:42:53;100697.84;;;1.50;100.00
51876;BME280;34054;52.100;5.116;2024-01-16T00:43:25;100704.91;;;1.58;100.00
51876;BME280;34054;52.100;5.116;2024-01-16T00:43:56;100710.25;;;1.58;100.00
51876;BME280;34054;52.100;5.116;2024-01-16T00:44:29;100709.56;;;1.43;100.00
51876;BME280;34054;52.100;5.116;2024-01-16T00:45:00;100712.69;;;1.46;100.00
51876;BME280;34054;52.100;5.116;2024-01-16T00:45:32;100707.97;;;1.48;100.00
51876;BME280;34054;52.100;5.116;2024-01-16T00:46:05;100712.72;;;1.53;100.00
51876;BME280;34054;52.100;5.116;2024-01-16T00:46:36;100704.69;;;1.60;100.00
51876;BME280;34054;52.100;5.116;2024-01-16T00:47:08;100708.78;;;1.49;100.00
51876;BME280;34054;52.100;5.116;2024-01-16T00:47:39;100708.78;;;1.49;100.00
51876;BME280;34054;52.100;5.116;2024-01-16T00:48:12;100710.44;;;1.50;100.00
51876;BME280;34054;52.100;5.116;2024-01-16T00:48:44;100717.59;;;1.43;100.00
51876;BME280;34054;52.100;5.116;2024-01-16T00:49:16;100705.03;;;1.36;100.00
51876;BME280;34054;52.100;5.116;2024-01-16T00:49:48;100714.34;;;1.47;100.00
51876;BME280;34054;52.100;5.116;2024-01-16T00:50:20;100717.47;;;1.58;100.00
51876;BME280;34054;52.100;5.116;2024-01-16T00:50:53;100708.19;;;1.53;100.00
51876;BME280;34054;52.100;5.116;2024-01-16T00:51:24;100714.97;;;1.49;100.00
51876;BME280;34054;52.100;5.116;2024-01-16T00:51:57;100718.25;;;1.51;100.00
51876;BME280;34054;52.100;5.116;2024-01-16T00:52:28;100712.13;;;1.58;100.00
51876;BME280;34054;52.100;5.116;2024-01-16T00:53:00;100724.44;;;1.52;100.00
51876;BME280;34054;52.100;5.116;2024-01-16T00:53:31;100714.91;;;1.36;100.00
51876;BME280;34054;52.100;5.116;2024-01-16T00:54:04;100725.97;;;1.33;100.00
51876;BME280;34054;52.100;5.116;2024-01-16T00:54:37;100720.66;;;1.39;100.00
51876;BME280;34054;52.100;5.116;2024-01-16T00:55:10;100720.91;;;1.51;100.00
51876;BME280;34054;52.100;5.116;2024-01-16T00:55:42;100723.63;;;1.58;100.00
51876;BME280;34054;52.100;5.116;2024-01-16T00:56:15;100724.66;;;1.57;100.00
51876;BME280;34054;52.100;5.116;2024-01-16T00:56:47;100724.84;;;1.49;100.00
51876;BME280;34054;52.100;5.116;2024-01-16T00:57:18;100722.13;;;1.42;100.00
51876;BME280;34054;52.100;5.116;2024-01-16T00:57:51;100724.19;;;1.40;100.00
51876;BME280;34054;52.100;5.116;2024-01-16T00:58:24;100711.41;;;1.35;100.00
51876;BME280;34054;52.100;5.116;2024-01-16T00:58:57;100726.44;;;1.36;100.00
51876;BME280;34054;52.100;5.116;2024-01-16T00:59:29;100729.50;;;1.33;100.00
51876;BME280;34054;52.100;5.116;2024-01-16T01:00:00;100732.19;;;1.33;100.00
51876;BME280;34054;52.100;5.116;2024-01-16T01:00:34;100724.16;;;1.33;100.00
51876;BME280;34054;52.100;5.116;2024-01-16T01:01:08;100722.09;;;1.35;100.00
51876;BME280;34054;52.100;5.116;2024-01-16T01:01:39;100715.09;;;1.34;100.00
51876;BME280;34054;52.100;5.116;2024-01-16T01:02:11;100728.66;;;1.33;100.00
51876;BME280;34054;52.100;5.116;2024-01-16T01:02:43;100730.91;;;1.29;100.00
51876;BME280;34054;52.100;5.116;2024-01-16T01:03:15;100730.63;;;1.11;100.00
51876;BME280;34054;52.100;5.116;2024-01-16T01:03:47;100730.31;;;0.99;100.00
51876;BME280;34054;52.100;5.116;2024-01-16T01:04:18;100732.47;;;0.82;100.00
51876;BME280;34054;52.100;5.116;2024-01-16T01:04:51;100733.94;;;0.84;100.00
51876;BME280;34054;52.100;5.116;2024-01-16T01:05:22;100729.94;;;0.73;100.00
51876;BME280;34054;52.100;5.116;2024-01-16T01:06:00;100731.34;;;0.69;100.00
51876;BME280;34054;52.100;5.116;2024-01-16T01:06:32;100731.75;;;0.66;100.00
51876;BME280;34054;52.100;5.116;2024-01-16T01:07:04;100730.16;;;0.72;100.00
51876;BME280;34054;52.100;5.116;2024-01-16T01:07:36;100732.25;;;0.76;100.00
51876;BME280;34054;52.100;5.116;2024-01-16T01:08:07;100726.13;;;0.83;100.00
51876;BME280;34054;52.100;5.116;2024-01-16T01:08:40;100731.63;;;0.81;100.00
51876;BME280;34054;52.100;5.116;2024-01-16T01:09:12;100727.19;;;0.88;100.00
51876;BME280;34054;52.100;5.116;2024-01-16T01:09:44;100730.78;;;1.09;100.00
51876;BME280;34054;52.100;5.116;2024-01-16T01:10:15;100726.44;;;1.01;100.00
51876;BME280;34054;52.100;5.116;2024-01-16T01:10:47;100724.78;;;1.00;100.00
51876;BME280;34054;52.100;5.116;2024-01-16T01:11:21;100730.56;;;1.04;100.00
51876;BME280;34054;52.100;5.116;2024-01-16T01:11:52;100731.00;;;1.07;100.00
51876;BME280;34054;52.100;5.116;2024-01-16T01:12:24;100731.81;;;1.08;100.00
51876;BME280;34054;52.100;5.116;2024-01-16T01:12:57;100723.19;;;1.06;100.00
51876;BME280;34054;52.100;5.116;2024-01-16T01:13:28;100728.38;;;1.14;100.00
51876;BME280;34054;52.100;5.116;2024-01-16T01:14:00;100721.53;;;1.05;100.00
51876;BME280;34054;52.100;5.116;2024-01-16T01:14:31;100719.63;;;0.99;100.00
51876;BME280;34054;52.100;5.116;2024-01-16T01:15:05;100727.47;;;1.00;100.00
51876;BME280;34054;52.100;5.116;2024-01-16T01:15:36;100729.06;;;0.94;100.00
51876;BME280;34054;52.100;5.116;2024-01-16T01:16:08;100725.97;;;0.91;100.00
51876;BME280;34054;52.100;5.116;2024-01-16T01:16:40;100718.38;;;0.94;100.00
51876;BME280;34054;52.100;5.116;2024-01-16T01:17:12;100725.88;;;1.06;100.00
51876;BME280;34054;52.100;5.116;2024-01-16T01:17:44;100731.44;;;1.11;100.00
51876;BME280;34054;52.100;5.116;2024-01-16T01:18:16;100716.84;;;1.14;100.00
51876;BME280;34054;52.100;5.116;2024-01-16T01:18:47;100727.69;;;1.05;100.00
51876;BME280;34054;52.100;5.116;2024-01-16T01:19:20;100718.06;;;1.11;100.00
51876;BME280;34054;52.100;5.116;2024-01-16T01:19:51;100717.09;;;1.19;100.00
51876;BME280;34054;52.100;5.116;2024-01-16T01:20:23;100728.97;;;1.16;100.00
51876;BME280;34054;52.100;5.116;2024-01-16T01:20:56;100719.75;;;1.19;100.00
51876;BME280;34054;52.100;5.116;2024-01-16T01:21:28;100721.59;;;1.18;100.00
51876;BME280;34054;52.100;5.116;2024-01-16T01:21:59;100723.69;;;1.23;100.00
51876;BME280;34054;52.100;5.116;2024-01-16T01:22:31;100716.03;;;1.20;100.00
51876;BME280;34054;52.100;5.116;2024-01-16T01:23:04;100717.09;;;1.19;100.00
51876;BME280;34054;52.100;5.116;2024-01-16T01:23:35;100718.50;;;1.15;100.00
51876;BME280;34054;52.100;5.116;2024-01-16T01:24:07;100724.22;;;1.12;100.00
51876;BME280;34054;52.100;5.116;2024-01-16T01:24:39;100732.50;;;1.17;100.00
51876;BME280;34054;52.100;5.116;2024-01-16T01:25:12;100735.13;;;1.10;100.00
51876;BME280;34054;52.100;5.116;2024-01-16T01:25:44;100738.00;;;1.08;100.00
51876;BME280;34054;52.100;5.116;2024-01-16T01:26:15;100730.09;;;0.93;100.00
51876;BME280;34054;52.100;5.116;2024-01-16T01:26:50;100742.25;;;0.96;100.00
51876;BME280;34054;52.100;5.116;2024-01-16T01:27:22;100740.00;;;1.00;100.00
51876;BME280;34054;52.100;5.116;2024-01-16T01:27:54;100729.28;;;1.00;100.00
51876;BME280;34054;52.100;5.116;2024-01-16T01:28:26;100742.06;;;0.98;100.00
51876;BME280;34054;52.100;5.116;2024-01-16T01:28:58;100728.59;;;0.84;100.00
51876;BME280;34054;52.100;5.116;2024-01-16T01:29:30;100743.66;;;0.92;100.00
51876;BME280;34054;52.100;5.116;2024-01-16T01:30:02;100739.78;;;0.94;100.00
51876;BME280;34054;52.100;5.116;2024-01-16T01:30:34;100743.09;;;0.97;100.00
51876;BME280;34054;52.100;5.116;2024-01-16T01:31:08;100736.72;;;0.98;100.00
51876;BME280;34054;52.100;5.116;2024-01-16T01:31:40;100740.19;;;0.98;100.00
51876;BME280;34054;52.100;5.116;2024-01-16T01:32:12;100742.34;;;1.09;100.00
51876;BME280;34054;52.100;5.116;2024-01-16T01:32:44;100741.97;;;1.19;100.00
51876;BME280;34054;52.100;5.116;2024-01-16T01:33:15;100747.56;;;1.24;100.00
51876;BME280;34054;52.100;5.116;2024-01-16T01:33:47;100741.78;;;1.21;100.00
51876;BME280;34054;52.100;5.116;2024-01-16T01:34:20;100743.84;;;1.19;100.00
51876;BME280;34054;52.100;5.116;2024-01-16T01:34:51;100740.75;;;1.22;100.00
51876;BME280;34054;52.100;5.116;2024-01-16T01:35:23;100734.31;;;1.09;100.00
51876;BME280;34054;52.100;5.116;2024-01-16T01:35:55;100747.31;;;1.19;100.00
51876;BME280;34054;52.100;5.116;2024-01-16T01:36:26;100741.59;;;1.22;100.00
51876;BME280;34054;52.100;5.116;2024-01-16T01:36:59;100745.50;;;1.27;100.00
51876;BME280;34054;52.100;5.116;2024-01-16T01:37:31;100742.69;;;1.35;100.00
51876;BME280;34054;52.100;5.116;2024-01-16T01:38:02;100748.22;;;1.33;100.00
51876;BME280;34054;52.100;5.116;2024-01-16T01:38:34;100739.19;;;1.34;100.00
51876;BME280;34054;52.100;5.116;2024-01-16T01:39:07;100747.16;;;1.28;100.00
51876;BME280;34054;52.100;5.116;2024-01-16T01:39:38;100738.50;;;1.25;100.00
51876;BME280;34054;52.100;5.116;2024-01-16T01:40:10;100739.94;;;1.28;100.00
51876;BME280;34054;52.100;5.116;2024-01-16T01:40:43;100741.44;;;1.37;100.00
51876;BME280;34054;52.100;5.116;2024-01-16T01:41:15;100744.53;;;1.34;100.00
51876;BME280;34054;52.100;5.116;2024-01-16T01:41:47;100750.69;;;1.35;100.00
51876;BME280;34054;52.100;5.116;2024-01-16T01:42:21;100753.03;;;1.45;100.00
51876;BME280;34054;52.100;5.116;2024-01-16T01:42:52;100755.28;;;1.48;100.00
51876;BME280;34054;52.100;5.116;2024-01-16T01:43:24;100746.47;;;1.54;100.00
51876;BME280;34054;52.100;5.116;2024-01-16T01:43:56;100753.91;;;1.59;100.00
51876;BME280;34054;52.100;5.116;2024-01-16T01:44:29;100750.19;;;1.60;100.00
51876;BME280;34054;52.100;5.116;2024-01-16T01:45:00;100756.56;;;1.52;100.00
51876;BME280;34054;52.100;5.116;2024-01-16T01:45:32;100752.44;;;1.49;100.00
51876;BME280;34054;52.100;5.116;2024-01-16T01:46:09;100761.50;;;1.55;100.00
51876;BME280;34054;52.100;5.116;2024-01-16T01:46:45;100754.75;;;1.59;100.00
51876;BME280;34054;52.100;5.116;2024-01-16T01:47:17;100753.72;;;1.60;100.00
51876;BME280;34054;52.100;5.116;2024-01-16T01:47:49;100752.06;;;1.59;100.00
51876;BME280;34054;52.100;5.116;2024-01-16T01:48:21;100747.50;;;1.53;100.00
51876;BME280;34054;52.100;5.116;2024-01-16T01:48:55;100756.78;;;1.57;100.00
51876;BME280;34054;52.100;5.116;2024-01-16T01:49:27;100751.47;;;1.64;100.00
51876;BME280;34054;52.100;5.116;2024-01-16T01:49:59;100759.91;;;1.67;100.00
51876;BME280;34054;52.100;5.116;2024-01-16T01:50:31;100752.09;;;1.66;100.00
51876;BME280;34054;52.100;5.116;2024-01-16T01:51:03;100750.22;;;1.66;100.00
51876;BME280;34054;52.100;5.116;2024-01-16T01:51:35;100757.03;;;1.69;100.00
51876;BME280;34054;52.100;5.116;2024-01-16T01:52:07;100751.03;;;1.60;100.00
51876;BME280;34054;52.100;5.116;2024-01-16T01:52:40;100759.28;;;1.65;100.00
51876;BME280;34054;52.100;5.116;2024-01-16T01:53:13;100761.94;;;1.59;100.00
51876;BME280;34054;52.100;5.116;2024-01-16T01:53:46;100754.47;;;1.47;100.00
51876;BME280;34054;52.100;5.116;2024-01-16T01:54:21;100764.59;;;1.52;100.00
51876;BME280;34054;52.100;5.116;2024-01-16T01:54:54;100760.00;;;1.46;100.00
51876;BME280;34054;52.100;5.116;2024-01-16T01:55:26;100760.00;;;1.46;100.00
51876;BME280;34054;52.100;5.116;2024-01-16T01:56:00;100764.19;;;1.55;100.00
51876;BME280;34054;52.100;5.116;2024-01-16T01:56:35;100765.63;;;1.51;100.00
51876;BME280;34054;52.100;5.116;2024-01-16T01:57:08;100741.84;;;1.34;100.00
51876;BME280;34054;52.100;5.116;2024-01-16T01:57:41;100766.84;;;1.48;100.00
51876;BME280;34054;52.100;5.116;2024-01-16T01:58:13;100768.28;;;1.51;100.00
51876;BME280;34054;52.100;5.116;2024-01-16T01:58:47;100764.94;;;1.35;100.00
51876;BME280;34054;52.100;5.116;2024-01-16T01:59:21;100757.50;;;1.31;100.00
51876;BME280;34054;52.100;5.116;2024-01-16T01:59:54;100757.28;;;1.32;100.00
51876;BME280;34054;52.100;5.116;2024-01-16T02:00:26;100758.13;;;1.39;100.00
51876;BME280;34054;52.100;5.116;2024-01-16T02:00:57;100757.75;;;1.43;100.00
51876;BME280;34054;52.100;5.116;2024-01-16T02:01:31;100765.63;;;1.51;100.00
51876;BME280;34054;52.100;5.116;2024-01-16T02:02:04;100757.00;;;1.55;100.00
51876;BME280;34054;52.100;5.116;2024-01-16T02:02:36;100757.59;;;1.51;100.00
51876;BME280;34054;52.100;5.116;2024-01-16T02:03:08;100745.78;;;1.38;100.00
51876;BME280;34054;52.100;5.116;2024-01-16T02:03:42;100744.28;;;1.22;100.00
51876;BME280;34054;52.100;5.116;2024-01-16T02:04:17;100757.50;;;1.31;100.00
51876;BME280;34054;52.100;5.116;2024-01-16T02:04:50;100759.09;;;1.25;100.00
51876;BME280;34054;52.100;5.116;2024-01-16T02:05:22;100744.66;;;1.19;100.00
51876;BME280;34054;52.100;5.116;2024-01-16T02:05:54;100753.75;;;1.25;100.00
51876;BME280;34054;52.100;5.116;2024-01-16T02:06:27;100759.31;;;1.30;100.00
51876;BME280;34054;52.100;5.116;2024-01-16T02:06:59;100757.91;;;1.34;100.00
51876;BME280;34054;52.100;5.116;2024-01-16T02:07:32;100752.31;;;1.29;100.00
51876;BME280;34054;52.100;5.116;2024-01-16T02:08:06;100747.00;;;1.36;100.00
51876;BME280;34054;52.100;5.116;2024-01-16T02:08:39;100747.56;;;1.24;100.00
51876;BME280;34054;52.100;5.116;2024-01-16T02:09:11;100750.22;;;1.24;100.00
51876;BME280;34054;52.100;5.116;2024-01-16T02:09:44;100738.56;;;1.32;100.00
51876;BME280;34054;52.100;5.116;2024-01-16T02:10:17;100741.84;;;1.34;100.00
51876;BME280;34054;52.100;5.116;2024-01-16T02:10:49;100739.41;;;1.39;100.00
51876;BME280;34054;52.100;5.116;2024-01-16T02:11:21;100734.53;;;1.50;100.00
51876;BME280;34054;52.100;5.116;2024-01-16T02:11:53;100741.75;;;1.56;100.00
51876;BME280;34054;52.100;5.116;2024-01-16T02:12:25;100737.22;;;1.56;100.00
51876;BME280;34054;52.100;5.116;2024-01-16T02:12:58;100738.00;;;1.44;100.00
51876;BME280;34054;52.100;5.116;2024-01-16T02:13:29;100728.50;;;1.41;100.00
51876;BME280;34054;52.100;5.116;2024-01-16T02:14:02;100734.66;;;1.35;100.00
51876;BME280;34054;52.100;5.116;2024-01-16T02:14:34;100740.63;;;1.37;100.00
51876;BME280;34054;52.100;5.116;2024-01-16T02:15:07;100729.13;;;1.43;100.00
51876;BME280;34054;52.100;5.116;2024-01-16T02:15:39;100733.88;;;1.48;100.00
51876;BME280;34054;52.100;5.116;2024-01-16T02:16:19;100731.47;;;1.60;100.00
51876;BME280;34054;52.100;5.116;2024-01-16T02:16:51;100738.13;;;1.70;100.00
51876;BME280;34054;52.100;5.116;2024-01-16T02:17:22;100738.31;;;1.76;100.00
51876;BME280;34054;52.100;5.116;2024-01-16T02:17:57;100729.47;;;1.82;100.00
51876;BME280;34054;52.100;5.116;2024-01-16T02:18:28;100729.28;;;1.83;100.00
51876;BME280;34054;52.100;5.116;2024-01-16T02:19:00;100728.25;;;1.84;100.00
51876;BME280;34054;52.100;5.116;2024-01-16T02:19:32;100723.50;;;1.80;100.00
51876;BME280;34054;52.100;5.116;2024-01-16T02:20:05;100715.56;;;1.51;100.00
51876;BME280;34054;52.100;5.116;2024-01-16T02:20:38;100723.47;;;1.66;100.00
51876;BME280;34054;52.100;5.116;2024-01-16T02:21:10;100719.56;;;1.69;100.00
51876;BME280;34054;52.100;5.116;2024-01-16T02:21:47;100727.66;;;1.82;100.00
51876;BME280;34054;52.100;5.116;2024-01-16T02:22:20;100712.81;;;1.86;100.00
51876;BME280;34054;52.100;5.116;2024-01-16T02:22:55;100719.00;;;1.94;100.00
51876;BME280;34054;52.100;5.116;2024-01-16T02:23:32;100718.38;;;1.85;100.00
51876;BME280;34054;52.100;5.116;2024-01-16T02:24:05;100716.53;;;1.92;100.00
51876;BME280;34054;52.100;5.116;2024-01-16T02:24:37;100719.63;;;1.96;100.00
51876;BME280;34054;52.100;5.116;2024-01-16T02:25:10;100715.91;;;1.90;100.00
51876;BME280;34054;52.100;5.116;2024-01-16T02:25:42;100712.63;;;1.95;100.00
51876;BME280;34054;52.100;5.116;2024-01-16T02:26:14;100717.59;;;1.98;100.00
51876;BME280;34054;52.100;5.116;2024-01-16T02:26:47;100713.47;;;2.09;100.00
51876;BME280;34054;52.100;5.116;2024-01-16T02:27:19;100718.81;;;2.02;100.00
51876;BME280;34054;52.100;5.116;2024-01-16T02:27:51;100717.13;;;1.87;100.00
51876;BME280;34054;52.100;5.116;2024-01-16T02:28:22;100713.03;;;1.85;100.00
51876;BME280;34054;52.100;5.116;2024-01-16T02:28:54;100718.59;;;1.90;100.00
51876;BME280;34054;52.100;5.116;2024-01-16T02:29:26;100713.25;;;1.97;100.00
51876;BME280;34054;52.100;5.116;2024-01-16T02:29:58;100712.00;;;1.86;100.00
51876;BME280;34054;52.100;5.116;2024-01-16T02:30:29;100721.03;;;1.78;100.00
51876;BME280;34054;52.100;5.116;2024-01-16T02:31:01;100726.63;;;1.83;100.00
51876;BME280;34054;52.100;5.116;2024-01-16T02:31:33;100710.53;;;1.77;100.00
51876;BME280;34054;52.100;5.116;2024-01-16T02:32:05;100720.03;;;1.86;100.00
51876;BME280;34054;52.100;5.116;2024-01-16T02:32:37;100716.13;;;1.88;100.00
51876;BME280;34054;52.100;5.116;2024-01-16T02:33:09;100723.53;;;1.93;100.00
51876;BME280;34054;52.100;5.116;2024-01-16T02:33:41;100724.78;;;1.97;100.00
51876;BME280;34054;52.100;5.116;2024-01-16T02:34:12;100713.06;;;2.05;100.00
51876;BME280;34054;52.100;5.116;2024-01-16T02:34:44;100719.22;;;2.06;100.00
51876;BME280;34054;52.100;5.116;2024-01-16T02:35:17;100725.00;;;2.02;100.00
51876;BME280;34054;52.100;5.116;2024-01-16T02:35:49;100720.28;;;2.04;100.00
51876;BME280;34054;52.100;5.116;2024-01-16T02:36:21;100722.56;;;2.14;100.00
51876;BME280;34054;52.100;5.116;2024-01-16T02:36:52;100719.03;;;2.14;100.00
51876;BME280;34054;52.100;5.116;2024-01-16T02:37:25;100723.53;;;1.93;100.00
51876;BME280;34054;52.100;5.116;2024-01-16T02:37:56;100722.53;;;1.94;100.00
51876;BME280;34054;52.100;5.116;2024-01-16T02:38:28;100717.16;;;1.94;100.00
51876;BME280;34054;52.100;5.116;2024-01-16T02:39:01;100727.81;;;1.81;100.00
51876;BME280;34054;52.100;5.116;2024-01-16T02:39:34;100723.25;;;1.68;100.00
51876;BME280;34054;52.100;5.116;2024-01-16T02:40:06;100718.72;;;1.62;100.00
51876;BME280;34054;52.100;5.116;2024-01-16T02:40:38;100725.31;;;1.72;100.00
51876;BME280;34054;52.100;5.116;2024-01-16T02:41:13;100726.38;;;1.78;100.00
51876;BME280;34054;52.100;5.116;2024-01-16T02:41:45;100730.22;;;1.55;100.00
51876;BME280;34054;52.100;5.116;2024-01-16T02:42:17;100734.31;;;1.51;100.00
51876;BME280;34054;52.100;5.116;2024-01-16T02:42:48;100730.19;;;1.49;100.00
51876;BME280;34054;52.100;5.116;2024-01-16T02:43:20;100737.16;;;1.36;100.00
51876;BME280;34054;52.100;5.116;2024-01-16T02:43:52;100727.41;;;1.29;100.00
51876;BME280;34054;52.100;5.116;2024-01-16T02:44:24;100729.50;;;1.33;100.00
51876;BME280;34054;52.100;5.116;2024-01-16T02:44:56;100724.56;;;1.37;100.00
51876;BME280;34054;52.100;5.116;2024-01-16T02:45:27;100727.28;;;1.50;100.00
51876;BME280;34054;52.100;5.116;2024-01-16T02:46:00;100719.31;;;1.57;100.00
51876;BME280;34054;52.100;5.116;2024-01-16T02:46:31;100714.78;;;1.58;100.00
51876;BME280;34054;52.100;5.116;2024-01-16T02:47:03;100722.00;;;1.64;100.00
51876;BME280;34054;52.100;5.116;2024-01-16T02:47:37;100725.72;;;1.63;100.00
51876;BME280;34054;52.100;5.116;2024-01-16T02:48:10;100720.16;;;1.64;100.00
51876;BME280;34054;52.100;5.116;2024-01-16T02:48:42;100726.78;;;1.68;100.00
51876;BME280;34054;52.100;5.116;2024-01-16T02:49:14;100718.06;;;1.60;100.00